Terminal Aerodrome Forecast
Issued by NWS Atlanta, GA

Home | Current Version | Previous Version | Text Only | Print | Product List | Glossary On
Versions: 1 2 3 4 5 6 7 8 9 10 11 12 13 14 15 16
000
FTUS42 KFFC 281736
TAFMCN
TAF
KMCN 281736Z 2818/2918 04003KT P6SM SCT040
      TEMPO 2818/2822 VRB15G25KT 6SM -TSRA BKN050CB
     FM290100 00000KT P6SM SCT120
     FM291500 31006KT P6SM SCT050=

USA.gov is the U.S. government's official web portal to all federal, state and local government web resources and services.